Main page
METAR-TAF:

METAR-TAF

Airports :

Macau International Airport

Macau, China

latitude: 22-10N, longitude: 113-34E, elevation: 114 m

Current weather observation

The report was made 26 minutes ago, at 16:30 UTC
Wind 16 kt from the Northeast
Temperature 17°C
Humidity 45%
Pressure 1025 hPa
Visibility 10 km or more
Few clouds at a height of 3500 ft

METAR: VMMC 051630Z 04016KT 9999 FEW035 17/05 Q1025 NOSIG

Time: 00:56 (16:56 UTC)

Forecast

The report was made 5 hours and 56 minutes ago, at 11:00 UTC
Forecast valid from 05 at 12 UTC to 06 at 18 UTC
Wind 16 kt from the North/Northeast
Visibility 10 km or more
Few clouds at a height of 4000 ft
Temporary
from 05 at 20 UTC to 06 at 08 UTC
Wind 22 kt from the North with gusts up to 32 kt

TAF: VMMC 051100Z 0512/0618 03016KT 9999 FEW040 TEMPO 0520/0608 35022G32KT

Weather observations and forecasts of more than 4000 airports (METAR and TAF reports).

The available stations are represented by yellow and red dots on the map.

Hover mouse over dot to see the name of the station.

Then click to see weather observations and forecasts.

To change the map : click on the green buttons with a black cross to zoom in, on the green button with a dash to zoom out, or on the green arrows for adjacent maps.


METAR-TAF: